sensor_id;sensor_type;location;lat;lon;timestamp;P1;durP1;ratioP1;P2;durP2;ratioP2
60233;SDS011;49514;43.538;-5.708;2023-04-24T00:06:27;12.63;;;2.38;;
60233;SDS011;49514;43.538;-5.708;2023-04-24T00:08:59;10.43;;;1.92;;
60233;SDS011;49514;43.538;-5.708;2023-04-24T00:11:26;11.13;;;2.00;;
60233;SDS011;49514;43.538;-5.708;2023-04-24T00:13:54;13.38;;;2.15;;
60233;SDS011;49514;43.538;-5.708;2023-04-24T00:16:21;11.45;;;2.22;;
60233;SDS011;49514;43.538;-5.708;2023-04-24T00:18:48;11.43;;;2.20;;
60233;SDS011;49514;43.538;-5.708;2023-04-24T00:21:15;10.18;;;1.90;;
60233;SDS011;49514;43.538;-5.708;2023-04-24T00:23:44;8.20;;;1.70;;
60233;SDS011;49514;43.538;-5.708;2023-04-24T00:26:11;9.00;;;1.55;;
60233;SDS011;49514;43.538;-5.708;2023-04-24T00:28:37;8.95;;;1.88;;
60233;SDS011;49514;43.538;-5.708;2023-04-24T00:31:04;7.35;;;1.58;;
60233;SDS011;49514;43.538;-5.708;2023-04-24T00:33:31;9.27;;;1.95;;
60233;SDS011;49514;43.538;-5.708;2023-04-24T00:35:58;9.70;;;2.08;;
60233;SDS011;49514;43.538;-5.708;2023-04-24T00:38:24;12.35;;;2.20;;
60233;SDS011;49514;43.538;-5.708;2023-04-24T00:40:51;9.05;;;1.95;;
60233;SDS011;49514;43.538;-5.708;2023-04-24T00:43:19;10.20;;;1.80;;
60233;SDS011;49514;43.538;-5.708;2023-04-24T00:45:46;9.98;;;2.13;;
60233;SDS011;49514;43.538;-5.708;2023-04-24T00:48:13;9.25;;;2.10;;
60233;SDS011;49514;43.538;-5.708;2023-04-24T00:50:40;7.70;;;1.80;;
60233;SDS011;49514;43.538;-5.708;2023-04-24T00:53:07;10.00;;;2.30;;
60233;SDS011;49514;43.538;-5.708;2023-04-24T00:55:34;9.30;;;1.70;;
60233;SDS011;49514;43.538;-5.708;2023-04-24T00:58:03;6.95;;;1.80;;
60233;SDS011;49514;43.538;-5.708;2023-04-24T01:00:30;11.50;;;2.20;;
60233;SDS011;49514;43.538;-5.708;2023-04-24T01:02:57;8.55;;;1.83;;
60233;SDS011;49514;43.538;-5.708;2023-04-24T01:05:27;6.25;;;1.50;;
60233;SDS011;49514;43.538;-5.708;2023-04-24T01:07:54;7.50;;;1.50;;
60233;SDS011;49514;43.538;-5.708;2023-04-24T01:10:21;7.97;;;1.80;;
60233;SDS011;49514;43.538;-5.708;2023-04-24T01:12:49;7.03;;;1.63;;
60233;SDS011;49514;43.538;-5.708;2023-04-24T01:15:17;5.20;;;1.40;;
60233;SDS011;49514;43.538;-5.708;2023-04-24T01:17:43;5.68;;;1.20;;
60233;SDS011;49514;43.538;-5.708;2023-04-24T01:20:11;7.63;;;1.40;;
60233;SDS011;49514;43.538;-5.708;2023-04-24T01:22:41;9.63;;;1.63;;
60233;SDS011;49514;43.538;-5.708;2023-04-24T01:25:08;5.03;;;1.30;;
60233;SDS011;49514;43.538;-5.708;2023-04-24T01:27:35;5.70;;;1.67;;
60233;SDS011;49514;43.538;-5.708;2023-04-24T01:30:02;8.05;;;1.48;;
60233;SDS011;49514;43.538;-5.708;2023-04-24T01:32:30;8.15;;;1.60;;
60233;SDS011;49514;43.538;-5.708;2023-04-24T01:34:57;4.70;;;1.33;;
60233;SDS011;49514;43.538;-5.708;2023-04-24T01:37:24;8.57;;;1.67;;
60233;SDS011;49514;43.538;-5.708;2023-04-24T01:39:52;4.28;;;1.30;;
60233;SDS011;49514;43.538;-5.708;2023-04-24T01:42:19;7.72;;;1.58;;
60233;SDS011;49514;43.538;-5.708;2023-04-24T01:44:46;8.57;;;1.30;;
60233;SDS011;49514;43.538;-5.708;2023-04-24T01:47:13;4.85;;;1.27;;
60233;SDS011;49514;43.538;-5.708;2023-04-24T01:49:40;5.60;;;1.58;;
60233;SDS011;49514;43.538;-5.708;2023-04-24T01:52:06;7.40;;;1.77;;
60233;SDS011;49514;43.538;-5.708;2023-04-24T01:54:33;6.53;;;1.40;;
60233;SDS011;49514;43.538;-5.708;2023-04-24T01:57:01;7.65;;;1.77;;
60233;SDS011;49514;43.538;-5.708;2023-04-24T01:59:28;7.78;;;1.63;;
60233;SDS011;49514;43.538;-5.708;2023-04-24T02:01:56;5.28;;;1.85;;
60233;SDS011;49514;43.538;-5.708;2023-04-24T02:04:23;6.90;;;1.70;;
60233;SDS011;49514;43.538;-5.708;2023-04-24T02:06:50;9.85;;;2.00;;
60233;SDS011;49514;43.538;-5.708;2023-04-24T02:09:17;12.65;;;2.38;;
60233;SDS011;49514;43.538;-5.708;2023-04-24T02:11:44;13.85;;;2.58;;
60233;SDS011;49514;43.538;-5.708;2023-04-24T02:14:10;13.27;;;2.28;;
60233;SDS011;49514;43.538;-5.708;2023-04-24T02:16:39;12.75;;;2.20;;
60233;SDS011;49514;43.538;-5.708;2023-04-24T02:19:06;9.50;;;1.85;;
60233;SDS011;49514;43.538;-5.708;2023-04-24T02:21:32;8.40;;;1.48;;
60233;SDS011;49514;43.538;-5.708;2023-04-24T02:24:01;7.05;;;1.90;;
60233;SDS011;49514;43.538;-5.708;2023-04-24T02:26:27;9.02;;;1.83;;
60233;SDS011;49514;43.538;-5.708;2023-04-24T02:28:54;9.68;;;2.20;;
60233;SDS011;49514;43.538;-5.708;2023-04-24T02:31:21;5.68;;;1.80;;
60233;SDS011;49514;43.538;-5.708;2023-04-24T02:33:48;5.22;;;1.63;;
60233;SDS011;49514;43.538;-5.708;2023-04-24T02:36:15;11.40;;;2.35;;
60233;SDS011;49514;43.538;-5.708;2023-04-24T02:38:42;8.55;;;2.20;;
60233;SDS011;49514;43.538;-5.708;2023-04-24T02:41:08;6.22;;;1.85;;
60233;SDS011;49514;43.538;-5.708;2023-04-24T02:43:35;5.95;;;1.80;;
60233;SDS011;49514;43.538;-5.708;2023-04-24T02:46:02;6.22;;;1.83;;
60233;SDS011;49514;43.538;-5.708;2023-04-24T02:48:28;6.90;;;1.88;;
60233;SDS011;49514;43.538;-5.708;2023-04-24T02:50:55;4.85;;;1.65;;
60233;SDS011;49514;43.538;-5.708;2023-04-24T02:53:23;11.52;;;1.90;;
60233;SDS011;49514;43.538;-5.708;2023-04-24T02:55:50;10.50;;;2.17;;
60233;SDS011;49514;43.538;-5.708;2023-04-24T02:58:17;5.90;;;2.05;;
60233;SDS011;49514;43.538;-5.708;2023-04-24T03:03:38;7.38;;;1.90;;
60233;SDS011;49514;43.538;-5.708;2023-04-24T03:06:05;5.38;;;1.85;;
60233;SDS011;49514;43.538;-5.708;2023-04-24T03:08:34;6.72;;;1.90;;
60233;SDS011;49514;43.538;-5.708;2023-04-24T03:11:01;4.85;;;1.60;;
60233;SDS011;49514;43.538;-5.708;2023-04-24T03:13:28;4.68;;;1.70;;
60233;SDS011;49514;43.538;-5.708;2023-04-24T03:15:55;7.22;;;2.05;;
60233;SDS011;49514;43.538;-5.708;2023-04-24T03:18:21;6.63;;;2.10;;
60233;SDS011;49514;43.538;-5.708;2023-04-24T03:20:50;4.18;;;1.65;;
60233;SDS011;49514;43.538;-5.708;2023-04-24T03:23:17;7.88;;;1.60;;
60233;SDS011;49514;43.538;-5.708;2023-04-24T03:25:44;3.70;;;1.55;;
60233;SDS011;49514;43.538;-5.708;2023-04-24T03:28:12;5.43;;;1.70;;
60233;SDS011;49514;43.538;-5.708;2023-04-24T03:30:42;6.22;;;1.73;;
60233;SDS011;49514;43.538;-5.708;2023-04-24T03:33:09;6.10;;;1.92;;
60233;SDS011;49514;43.538;-5.708;2023-04-24T03:35:41;7.45;;;2.10;;
60233;SDS011;49514;43.538;-5.708;2023-04-24T03:38:11;6.07;;;1.80;;
60233;SDS011;49514;43.538;-5.708;2023-04-24T03:40:44;5.38;;;1.80;;
60233;SDS011;49514;43.538;-5.708;2023-04-24T03:43:27;5.07;;;1.90;;
60233;SDS011;49514;43.538;-5.708;2023-04-24T03:45:55;6.18;;;1.52;;
60233;SDS011;49514;43.538;-5.708;2023-04-24T03:48:22;6.05;;;1.55;;
60233;SDS011;49514;43.538;-5.708;2023-04-24T03:50:49;4.25;;;1.67;;
60233;SDS011;49514;43.538;-5.708;2023-04-24T03:53:16;6.20;;;2.03;;
60233;SDS011;49514;43.538;-5.708;2023-04-24T03:55:48;4.63;;;1.98;;
60233;SDS011;49514;43.538;-5.708;2023-04-24T03:58:15;5.88;;;1.75;;
60233;SDS011;49514;43.538;-5.708;2023-04-24T04:00:43;6.15;;;1.98;;
60233;SDS011;49514;43.538;-5.708;2023-04-24T04:03:30;5.40;;;1.80;;
60233;SDS011;49514;43.538;-5.708;2023-04-24T04:05:56;8.55;;;1.83;;
60233;SDS011;49514;43.538;-5.708;2023-04-24T04:08:24;4.15;;;1.70;;
60233;SDS011;49514;43.538;-5.708;2023-04-24T04:10:50;4.05;;;1.73;;
60233;SDS011;49514;43.538;-5.708;2023-04-24T04:13:17;5.20;;;1.63;;
60233;SDS011;49514;43.538;-5.708;2023-04-24T04:15:44;4.68;;;1.50;;
60233;SDS011;49514;43.538;-5.708;2023-04-24T04:18:12;5.47;;;1.52;;
60233;SDS011;49514;43.538;-5.708;2023-04-24T04:20:39;3.70;;;1.40;;
60233;SDS011;49514;43.538;-5.708;2023-04-24T04:23:05;6.07;;;1.58;;
60233;SDS011;49514;43.538;-5.708;2023-04-24T04:25:42;4.13;;;1.70;;
60233;SDS011;49514;43.538;-5.708;2023-04-24T04:28:09;5.20;;;1.55;;
60233;SDS011;49514;43.538;-5.708;2023-04-24T04:30:36;4.13;;;1.50;;
60233;SDS011;49514;43.538;-5.708;2023-04-24T04:33:04;4.30;;;1.38;;
60233;SDS011;49514;43.538;-5.708;2023-04-24T04:35:32;4.20;;;1.38;;
60233;SDS011;49514;43.538;-5.708;2023-04-24T04:37:58;3.88;;;1.50;;
60233;SDS011;49514;43.538;-5.708;2023-04-24T04:40:40;6.00;;;2.10;;
60233;SDS011;49514;43.538;-5.708;2023-04-24T04:43:07;7.72;;;1.83;;
60233;SDS011;49514;43.538;-5.708;2023-04-24T04:45:46;6.30;;;1.50;;
60233;SDS011;49514;43.538;-5.708;2023-04-24T04:48:43;5.30;;;1.83;;
60233;SDS011;49514;43.538;-5.708;2023-04-24T04:51:10;4.75;;;1.52;;
60233;SDS011;49514;43.538;-5.708;2023-04-24T04:53:37;7.90;;;1.85;;
60233;SDS011;49514;43.538;-5.708;2023-04-24T04:56:04;4.70;;;1.73;;
60233;SDS011;49514;43.538;-5.708;2023-04-24T04:58:38;4.50;;;1.60;;
60233;SDS011;49514;43.538;-5.708;2023-04-24T05:01:09;5.95;;;1.80;;
60233;SDS011;49514;43.538;-5.708;2023-04-24T05:03:41;8.23;;;2.08;;
60233;SDS011;49514;43.538;-5.708;2023-04-24T05:06:11;6.95;;;2.30;;
60233;SDS011;49514;43.538;-5.708;2023-04-24T05:08:39;7.78;;;2.70;;
60233;SDS011;49514;43.538;-5.708;2023-04-24T05:11:09;6.85;;;2.65;;
60233;SDS011;49514;43.538;-5.708;2023-04-24T05:13:37;6.03;;;2.50;;
60233;SDS011;49514;43.538;-5.708;2023-04-24T05:16:06;8.00;;;2.80;;
60233;SDS011;49514;43.538;-5.708;2023-04-24T05:18:34;13.93;;;2.92;;
60233;SDS011;49514;43.538;-5.708;2023-04-24T05:21:01;11.50;;;3.47;;
60233;SDS011;49514;43.538;-5.708;2023-04-24T05:23:28;10.23;;;3.58;;
60233;SDS011;49514;43.538;-5.708;2023-04-24T05:25:56;11.50;;;3.55;;
60233;SDS011;49514;43.538;-5.708;2023-04-24T05:28:23;17.65;;;4.25;;
60233;SDS011;49514;43.538;-5.708;2023-04-24T05:31:03;20.13;;;4.45;;
60233;SDS011;49514;43.538;-5.708;2023-04-24T05:33:30;11.10;;;3.50;;
60233;SDS011;49514;43.538;-5.708;2023-04-24T05:35:56;9.93;;;2.97;;
60233;SDS011;49514;43.538;-5.708;2023-04-24T05:38:23;6.47;;;2.67;;
60233;SDS011;49514;43.538;-5.708;2023-04-24T05:40:50;4.60;;;2.30;;
60233;SDS011;49514;43.538;-5.708;2023-04-24T05:43:17;4.65;;;2.22;;
60233;SDS011;49514;43.538;-5.708;2023-04-24T05:45:44;4.72;;;2.55;;
60233;SDS011;49514;43.538;-5.708;2023-04-24T05:48:10;3.50;;;2.00;;
60233;SDS011;49514;43.538;-5.708;2023-04-24T05:50:37;3.78;;;2.05;;
60233;SDS011;49514;43.538;-5.708;2023-04-24T05:53:04;5.45;;;2.15;;
60233;SDS011;49514;43.538;-5.708;2023-04-24T05:55:34;5.00;;;2.10;;
60233;SDS011;49514;43.538;-5.708;2023-04-24T05:58:01;5.32;;;2.08;;
60233;SDS011;49514;43.538;-5.708;2023-04-24T06:00:29;4.72;;;2.50;;
60233;SDS011;49514;43.538;-5.708;2023-04-24T06:03:02;8.30;;;2.70;;
60233;SDS011;49514;43.538;-5.708;2023-04-24T06:05:32;9.98;;;2.85;;
60233;SDS011;49514;43.538;-5.708;2023-04-24T06:07:58;5.57;;;2.35;;
60233;SDS011;49514;43.538;-5.708;2023-04-24T06:10:30;5.95;;;2.53;;
60233;SDS011;49514;43.538;-5.708;2023-04-24T06:12:57;8.40;;;3.22;;
60233;SDS011;49514;43.538;-5.708;2023-04-24T06:15:30;11.07;;;3.40;;
60233;SDS011;49514;43.538;-5.708;2023-04-24T06:18:04;8.23;;;3.22;;
60233;SDS011;49514;43.538;-5.708;2023-04-24T06:20:31;12.30;;;3.40;;
60233;SDS011;49514;43.538;-5.708;2023-04-24T06:22:58;9.93;;;3.20;;
60233;SDS011;49514;43.538;-5.708;2023-04-24T06:25:25;9.88;;;3.42;;
60233;SDS011;49514;43.538;-5.708;2023-04-24T06:27:52;9.48;;;3.47;;
60233;SDS011;49514;43.538;-5.708;2023-04-24T06:30:20;12.32;;;3.20;;
60233;SDS011;49514;43.538;-5.708;2023-04-24T06:32:47;7.60;;;3.95;;
60233;SDS011;49514;43.538;-5.708;2023-04-24T06:35:15;4.88;;;3.20;;
60233;SDS011;49514;43.538;-5.708;2023-04-24T06:37:42;11.20;;;3.42;;
60233;SDS011;49514;43.538;-5.708;2023-04-24T06:40:09;10.18;;;3.45;;
60233;SDS011;49514;43.538;-5.708;2023-04-24T06:42:36;8.48;;;3.33;;
60233;SDS011;49514;43.538;-5.708;2023-04-24T06:45:03;7.38;;;3.92;;
60233;SDS011;49514;43.538;-5.708;2023-04-24T06:47:32;7.60;;;4.03;;
60233;SDS011;49514;43.538;-5.708;2023-04-24T06:49:58;6.93;;;4.15;;
60233;SDS011;49514;43.538;-5.708;2023-04-24T06:52:25;12.50;;;4.80;;
60233;SDS011;49514;43.538;-5.708;2023-04-24T06:54:51;9.65;;;4.35;;
60233;SDS011;49514;43.538;-5.708;2023-04-24T06:57:19;15.60;;;5.32;;
60233;SDS011;49514;43.538;-5.708;2023-04-24T06:59:46;19.90;;;4.90;;
60233;SDS011;49514;43.538;-5.708;2023-04-24T07:02:12;16.48;;;4.57;;
60233;SDS011;49514;43.538;-5.708;2023-04-24T07:04:39;17.20;;;5.05;;
60233;SDS011;49514;43.538;-5.708;2023-04-24T07:07:06;9.93;;;4.68;;
60233;SDS011;49514;43.538;-5.708;2023-04-24T07:09:35;11.32;;;5.00;;
60233;SDS011;49514;43.538;-5.708;2023-04-24T07:12:04;12.63;;;4.80;;
60233;SDS011;49514;43.538;-5.708;2023-04-24T07:14:31;9.27;;;4.90;;
60233;SDS011;49514;43.538;-5.708;2023-04-24T07:16:58;8.63;;;4.55;;
60233;SDS011;49514;43.538;-5.708;2023-04-24T07:19:25;9.35;;;3.90;;
60233;SDS011;49514;43.538;-5.708;2023-04-24T07:38:59;11.38;;;4.93;;
60233;SDS011;49514;43.538;-5.708;2023-04-24T07:41:26;9.90;;;4.85;;
60233;SDS011;49514;43.538;-5.708;2023-04-24T07:43:53;11.38;;;5.20;;
60233;SDS011;49514;43.538;-5.708;2023-04-24T12:08:40;9.95;;;1.90;;
60233;SDS011;49514;43.538;-5.708;2023-04-24T12:11:07;9.38;;;1.90;;
60233;SDS011;49514;43.538;-5.708;2023-04-24T14:23:53;4.65;;;1.65;;
60233;SDS011;49514;43.538;-5.708;2023-04-24T14:26:20;5.35;;;1.40;;
60233;SDS011;49514;43.538;-5.708;2023-04-24T14:28:46;3.83;;;1.30;;
60233;SDS011;49514;43.538;-5.708;2023-04-24T14:31:13;4.87;;;1.20;;
60233;SDS011;49514;43.538;-5.708;2023-04-24T14:33:40;4.50;;;1.10;;
60233;SDS011;49514;43.538;-5.708;2023-04-24T14:36:06;3.67;;;1.05;;
60233;SDS011;49514;43.538;-5.708;2023-04-24T14:38:33;3.38;;;1.20;;
60233;SDS011;49514;43.538;-5.708;2023-04-24T14:41:00;5.03;;;1.13;;
60233;SDS011;49514;43.538;-5.708;2023-04-24T14:43:28;3.53;;;1.20;;
60233;SDS011;49514;43.538;-5.708;2023-04-24T14:45:54;4.22;;;1.17;;
60233;SDS011;49514;43.538;-5.708;2023-04-24T14:48:21;5.83;;;1.17;;
60233;SDS011;49514;43.538;-5.708;2023-04-24T14:55:42;3.67;;;0.90;;
60233;SDS011;49514;43.538;-5.708;2023-04-24T14:58:09;2.00;;;1.00;;
60233;SDS011;49514;43.538;-5.708;2023-04-24T15:00:35;2.83;;;0.82;;
60233;SDS011;49514;43.538;-5.708;2023-04-24T18:18:55;4.78;;;1.52;;
60233;SDS011;49514;43.538;-5.708;2023-04-24T18:21:22;7.68;;;1.83;;
60233;SDS011;49514;43.538;-5.708;2023-04-24T18:23:50;3.83;;;1.42;;
60233;SDS011;49514;43.538;-5.708;2023-04-24T18:26:16;7.95;;;1.58;;
60233;SDS011;49514;43.538;-5.708;2023-04-24T18:28:43;3.70;;;1.30;;
60233;SDS011;49514;43.538;-5.708;2023-04-24T18:31:10;5.63;;;1.60;;
60233;SDS011;49514;43.538;-5.708;2023-04-24T18:33:37;4.82;;;1.73;;
60233;SDS011;49514;43.538;-5.708;2023-04-24T18:36:04;6.90;;;1.90;;
60233;SDS011;49514;43.538;-5.708;2023-04-24T18:38:31;3.60;;;1.50;;
60233;SDS011;49514;43.538;-5.708;2023-04-24T18:40:58;4.25;;;1.65;;
60233;SDS011;49514;43.538;-5.708;2023-04-24T18:43:25;3.78;;;1.80;;
60233;SDS011;49514;43.538;-5.708;2023-04-24T18:45:52;5.32;;;1.65;;
60233;SDS011;49514;43.538;-5.708;2023-04-24T18:48:20;7.10;;;2.20;;
60233;SDS011;49514;43.538;-5.708;2023-04-24T18:50:46;4.82;;;1.75;;
60233;SDS011;49514;43.538;-5.708;2023-04-24T18:53:13;5.07;;;1.77;;
60233;SDS011;49514;43.538;-5.708;2023-04-24T18:55:42;5.82;;;1.77;;
60233;SDS011;49514;43.538;-5.708;2023-04-24T18:58:09;6.57;;;1.67;;
60233;SDS011;49514;43.538;-5.708;2023-04-24T19:00:36;4.90;;;1.50;;
60233;SDS011;49514;43.538;-5.708;2023-04-24T19:03:03;6.57;;;1.77;;
60233;SDS011;49514;43.538;-5.708;2023-04-24T19:05:30;5.60;;;1.80;;
60233;SDS011;49514;43.538;-5.708;2023-04-24T19:07:57;7.40;;;2.55;;
60233;SDS011;49514;43.538;-5.708;2023-04-24T19:10:24;6.97;;;2.30;;
60233;SDS011;49514;43.538;-5.708;2023-04-24T19:12:52;5.28;;;1.73;;
60233;SDS011;49514;43.538;-5.708;2023-04-24T19:15:24;6.53;;;1.52;;
60233;SDS011;49514;43.538;-5.708;2023-04-24T19:17:51;6.72;;;1.98;;
60233;SDS011;49514;43.538;-5.708;2023-04-24T19:20:18;7.65;;;1.92;;
60233;SDS011;49514;43.538;-5.708;2023-04-24T19:22:45;4.73;;;1.90;;
60233;SDS011;49514;43.538;-5.708;2023-04-24T19:25:12;5.45;;;1.90;;
60233;SDS011;49514;43.538;-5.708;2023-04-24T19:27:40;5.20;;;1.90;;
60233;SDS011;49514;43.538;-5.708;2023-04-24T19:30:08;5.43;;;2.00;;
60233;SDS011;49514;43.538;-5.708;2023-04-24T19:32:35;6.57;;;2.08;;
60233;SDS011;49514;43.538;-5.708;2023-04-24T19:35:02;4.43;;;1.70;;
60233;SDS011;49514;43.538;-5.708;2023-04-24T19:37:29;5.57;;;2.00;;
60233;SDS011;49514;43.538;-5.708;2023-04-24T19:39:57;4.68;;;2.10;;
60233;SDS011;49514;43.538;-5.708;2023-04-24T19:42:24;4.43;;;1.90;;
60233;SDS011;49514;43.538;-5.708;2023-04-24T19:44:50;5.70;;;2.05;;
60233;SDS011;49514;43.538;-5.708;2023-04-24T19:47:17;6.55;;;2.58;;
60233;SDS011;49514;43.538;-5.708;2023-04-24T19:49:44;6.55;;;2.30;;
60233;SDS011;49514;43.538;-5.708;2023-04-24T19:52:11;5.88;;;2.10;;
60233;SDS011;49514;43.538;-5.708;2023-04-24T19:54:38;3.75;;;1.92;;
60233;SDS011;49514;43.538;-5.708;2023-04-24T19:57:04;4.63;;;1.90;;
60233;SDS011;49514;43.538;-5.708;2023-04-24T19:59:31;5.07;;;2.38;;
60233;SDS011;49514;43.538;-5.708;2023-04-24T20:01:58;3.78;;;1.98;;
60233;SDS011;49514;43.538;-5.708;2023-04-24T20:04:25;6.20;;;2.20;;
60233;SDS011;49514;43.538;-5.708;2023-04-24T20:06:51;7.00;;;2.10;;
60233;SDS011;49514;43.538;-5.708;2023-04-24T20:09:18;5.07;;;2.00;;
60233;SDS011;49514;43.538;-5.708;2023-04-24T20:11:45;5.20;;;2.28;;
60233;SDS011;49514;43.538;-5.708;2023-04-24T20:14:14;5.88;;;2.17;;
60233;SDS011;49514;43.538;-5.708;2023-04-24T20:16:41;4.18;;;2.00;;
60233;SDS011;49514;43.538;-5.708;2023-04-24T20:19:09;4.77;;;1.97;;
60233;SDS011;49514;43.538;-5.708;2023-04-24T20:21:37;7.07;;;2.10;;
60233;SDS011;49514;43.538;-5.708;2023-04-24T20:24:03;5.63;;;2.03;;
60233;SDS011;49514;43.538;-5.708;2023-04-24T20:26:33;3.90;;;1.90;;
60233;SDS011;49514;43.538;-5.708;2023-04-24T20:29:01;4.72;;;1.90;;
60233;SDS011;49514;43.538;-5.708;2023-04-24T20:31:29;5.88;;;2.20;;
60233;SDS011;49514;43.538;-5.708;2023-04-24T20:33:56;5.15;;;1.75;;
60233;SDS011;49514;43.538;-5.708;2023-04-24T20:36:23;6.30;;;2.10;;
60233;SDS011;49514;43.538;-5.708;2023-04-24T20:38:49;6.93;;;2.10;;
60233;SDS011;49514;43.538;-5.708;2023-04-24T20:41:16;5.00;;;2.17;;
60233;SDS011;49514;43.538;-5.708;2023-04-24T20:43:44;4.40;;;2.00;;
60233;SDS011;49514;43.538;-5.708;2023-04-24T20:46:11;4.43;;;2.10;;
60233;SDS011;49514;43.538;-5.708;2023-04-24T20:48:38;4.93;;;2.30;;
60233;SDS011;49514;43.538;-5.708;2023-04-24T20:51:05;4.85;;;2.10;;
60233;SDS011;49514;43.538;-5.708;2023-04-24T20:53:33;6.28;;;2.40;;
60233;SDS011;49514;43.538;-5.708;2023-04-24T20:55:59;6.95;;;2.35;;
60233;SDS011;49514;43.538;-5.708;2023-04-24T20:58:27;5.67;;;2.20;;
60233;SDS011;49514;43.538;-5.708;2023-04-24T21:00:53;6.35;;;2.40;;
60233;SDS011;49514;43.538;-5.708;2023-04-24T21:03:20;5.70;;;2.50;;
60233;SDS011;49514;43.538;-5.708;2023-04-24T21:05:47;5.03;;;2.47;;
60233;SDS011;49514;43.538;-5.708;2023-04-24T21:08:14;5.63;;;2.35;;
60233;SDS011;49514;43.538;-5.708;2023-04-24T21:10:41;5.40;;;2.65;;
60233;SDS011;49514;43.538;-5.708;2023-04-24T21:13:08;6.97;;;2.60;;
60233;SDS011;49514;43.538;-5.708;2023-04-24T21:15:34;6.88;;;2.60;;
60233;SDS011;49514;43.538;-5.708;2023-04-24T21:18:01;7.88;;;2.72;;
60233;SDS011;49514;43.538;-5.708;2023-04-24T21:20:28;4.57;;;2.40;;
60233;SDS011;49514;43.538;-5.708;2023-04-24T21:22:56;7.32;;;2.60;;
60233;SDS011;49514;43.538;-5.708;2023-04-24T21:25:23;7.35;;;2.70;;
60233;SDS011;49514;43.538;-5.708;2023-04-24T21:27:49;7.38;;;2.88;;
60233;SDS011;49514;43.538;-5.708;2023-04-24T21:30:16;6.50;;;2.60;;
60233;SDS011;49514;43.538;-5.708;2023-04-24T21:32:43;6.80;;;2.80;;
60233;SDS011;49514;43.538;-5.708;2023-04-24T21:35:10;6.60;;;2.78;;
60233;SDS011;49514;43.538;-5.708;2023-04-24T21:37:37;4.15;;;2.38;;
60233;SDS011;49514;43.538;-5.708;2023-04-24T21:40:06;7.97;;;3.05;;
60233;SDS011;49514;43.538;-5.708;2023-04-24T21:42:37;6.97;;;3.28;;
60233;SDS011;49514;43.538;-5.708;2023-04-24T21:45:05;8.93;;;4.68;;
60233;SDS011;49514;43.538;-5.708;2023-04-24T21:47:33;8.18;;;4.78;;
60233;SDS011;49514;43.538;-5.708;2023-04-24T21:50:00;9.25;;;4.07;;
60233;SDS011;49514;43.538;-5.708;2023-04-24T21:52:28;6.65;;;3.60;;
60233;SDS011;49514;43.538;-5.708;2023-04-24T21:54:55;8.57;;;3.85;;
60233;SDS011;49514;43.538;-5.708;2023-04-24T21:57:21;6.93;;;4.50;;
60233;SDS011;49514;43.538;-5.708;2023-04-24T21:59:49;9.05;;;4.60;;
60233;SDS011;49514;43.538;-5.708;2023-04-24T22:02:16;10.00;;;4.50;;
60233;SDS011;49514;43.538;-5.708;2023-04-24T22:04:44;8.57;;;4.45;;
60233;SDS011;49514;43.538;-5.708;2023-04-24T22:07:11;9.37;;;4.20;;
60233;SDS011;49514;43.538;-5.708;2023-04-24T22:09:38;7.63;;;3.70;;
60233;SDS011;49514;43.538;-5.708;2023-04-24T22:12:06;9.03;;;3.43;;
60233;SDS011;49514;43.538;-5.708;2023-04-24T22:14:33;8.20;;;3.45;;
60233;SDS011;49514;43.538;-5.708;2023-04-24T22:17:00;7.10;;;3.20;;
60233;SDS011;49514;43.538;-5.708;2023-04-24T22:19:27;5.82;;;3.20;;
60233;SDS011;49514;43.538;-5.708;2023-04-24T22:21:55;7.57;;;3.63;;
60233;SDS011;49514;43.538;-5.708;2023-04-24T22:24:22;8.87;;;3.53;;
60233;SDS011;49514;43.538;-5.708;2023-04-24T22:26:48;7.18;;;3.38;;
60233;SDS011;49514;43.538;-5.708;2023-04-24T22:29:15;6.43;;;3.67;;
60233;SDS011;49514;43.538;-5.708;2023-04-24T22:31:43;7.50;;;3.67;;
60233;SDS011;49514;43.538;-5.708;2023-04-24T22:34:10;8.95;;;4.03;;
60233;SDS011;49514;43.538;-5.708;2023-04-24T22:36:37;7.47;;;3.72;;
60233;SDS011;49514;43.538;-5.708;2023-04-24T22:39:04;7.55;;;3.60;;
60233;SDS011;49514;43.538;-5.708;2023-04-24T22:41:30;6.35;;;3.53;;
60233;SDS011;49514;43.538;-5.708;2023-04-24T22:43:57;7.80;;;3.67;;
60233;SDS011;49514;43.538;-5.708;2023-04-24T22:46:24;7.63;;;3.63;;
60233;SDS011;49514;43.538;-5.708;2023-04-24T22:48:51;6.00;;;3.38;;
60233;SDS011;49514;43.538;-5.708;2023-04-24T22:51:17;7.20;;;3.72;;
60233;SDS011;49514;43.538;-5.708;2023-04-24T22:53:44;5.87;;;3.50;;
60233;SDS011;49514;43.538;-5.708;2023-04-24T22:56:13;9.52;;;4.45;;
60233;SDS011;49514;43.538;-5.708;2023-04-24T22:58:40;9.50;;;4.05;;
60233;SDS011;49514;43.538;-5.708;2023-04-24T23:01:06;8.43;;;4.10;;
60233;SDS011;49514;43.538;-5.708;2023-04-24T23:03:33;9.35;;;4.10;;
60233;SDS011;49514;43.538;-5.708;2023-04-24T23:06:00;8.57;;;4.50;;
60233;SDS011;49514;43.538;-5.708;2023-04-24T23:08:27;7.97;;;3.93;;
60233;SDS011;49514;43.538;-5.708;2023-04-24T23:10:55;9.00;;;4.30;;
60233;SDS011;49514;43.538;-5.708;2023-04-24T23:13:22;11.37;;;4.60;;
60233;SDS011;49514;43.538;-5.708;2023-04-24T23:15:48;10.18;;;5.03;;
60233;SDS011;49514;43.538;-5.708;2023-04-24T23:18:15;8.10;;;4.97;;
60233;SDS011;49514;43.538;-5.708;2023-04-24T23:20:42;9.20;;;4.40;;
60233;SDS011;49514;43.538;-5.708;2023-04-24T23:23:09;13.15;;;4.50;;
60233;SDS011;49514;43.538;-5.708;2023-04-24T23:25:36;10.63;;;4.82;;
60233;SDS011;49514;43.538;-5.708;2023-04-24T23:28:03;11.52;;;4.75;;
60233;SDS011;49514;43.538;-5.708;2023-04-24T23:30:29;9.48;;;5.13;;
60233;SDS011;49514;43.538;-5.708;2023-04-24T23:32:56;11.32;;;5.30;;
60233;SDS011;49514;43.538;-5.708;2023-04-24T23:35:23;11.35;;;5.10;;
60233;SDS011;49514;43.538;-5.708;2023-04-24T23:37:50;17.50;;;5.53;;
60233;SDS011;49514;43.538;-5.708;2023-04-24T23:40:17;15.80;;;5.53;;
60233;SDS011;49514;43.538;-5.708;2023-04-24T23:42:44;16.37;;;5.53;;
60233;SDS011;49514;43.538;-5.708;2023-04-24T23:45:11;15.17;;;5.93;;
60233;SDS011;49514;43.538;-5.708;2023-04-24T23:47:38;15.93;;;5.32;;
60233;SDS011;49514;43.538;-5.708;2023-04-24T23:50:04;19.50;;;5.20;;
60233;SDS011;49514;43.538;-5.708;2023-04-24T23:52:31;16.53;;;4.93;;
60233;SDS011;49514;43.538;-5.708;2023-04-24T23:55:03;13.35;;;4.80;;
60233;SDS011;49514;43.538;-5.708;2023-04-24T23:57:30;10.85;;;4.45;;
60233;SDS011;49514;43.538;-5.708;2023-04-24T23:59:57;12.85;;;4.70;;
